createdAt,value
2018-06-15T00:01:40.759Z,2.77
2018-06-15T00:04:10.446Z,4.23
2018-06-15T00:06:40.054Z,4.63
2018-06-15T00:09:09.956Z,3.00
2018-06-15T00:11:39.621Z,8.10
2018-06-15T00:14:09.244Z,4.17
2018-06-15T00:16:38.807Z,2.67
2018-06-15T00:19:08.444Z,2.23
2018-06-15T00:21:38.171Z,2.27
2018-06-15T00:24:07.831Z,2.93
2018-06-15T00:26:37.435Z,3.00
2018-06-15T00:29:07.054Z,7.23
2018-06-15T00:31:36.644Z,4.80
2018-06-15T00:34:06.388Z,6.63
2018-06-15T00:36:36.073Z,5.97
2018-06-15T00:39:08.630Z,2.83
2018-06-15T00:41:38.280Z,8.20
2018-06-15T00:44:07.922Z,4.33
2018-06-15T00:46:37.550Z,5.90
2018-06-15T00:49:07.700Z,6.07
2018-06-15T00:51:37.811Z,2.20
2018-06-15T00:54:07.781Z,3.47
2018-06-15T00:56:46.993Z,3.97
2018-06-15T00:59:16.597Z,3.00
2018-06-15T01:01:46.222Z,3.20
2018-06-15T01:04:15.884Z,3.10
2018-06-15T01:06:45.523Z,2.20
2018-06-15T01:09:15.136Z,8.17
2018-06-15T01:11:44.698Z,2.57
2018-06-15T01:14:14.476Z,9.57
2018-06-15T01:16:44.323Z,6.40
2018-06-15T01:19:13.887Z,3.93
2018-06-15T01:21:43.503Z,1.50
2018-06-15T01:24:13.145Z,1.83
2018-06-15T01:26:42.912Z,4.80
2018-06-15T01:29:12.604Z,2.43
2018-06-15T01:31:42.330Z,5.77
2018-06-15T01:34:11.943Z,7.10
2018-06-15T01:36:41.643Z,5.63
2018-06-15T01:39:12.110Z,2.70
2018-06-15T01:41:41.826Z,5.40
2018-06-15T01:44:11.520Z,5.33
2018-06-15T01:46:41.114Z,2.10
2018-06-15T01:49:10.732Z,4.43
2018-06-15T01:51:46.007Z,3.10
2018-06-15T01:54:15.586Z,2.67
2018-06-15T01:56:45.166Z,3.90
2018-06-15T01:59:14.767Z,3.13
2018-06-15T02:01:44.429Z,3.47
2018-06-15T02:04:14.026Z,6.97
2018-06-15T02:06:43.726Z,1.93
2018-06-15T02:09:13.336Z,2.73
2018-06-15T02:11:43.095Z,6.63
2018-06-15T02:14:12.753Z,3.03
2018-06-15T02:16:42.443Z,3.00
2018-06-15T02:19:12.152Z,2.37
2018-06-15T02:21:41.735Z,2.50
2018-06-15T02:24:11.391Z,6.23
2018-06-15T02:26:41.023Z,1.97
2018-06-15T02:29:10.721Z,3.27
2018-06-15T02:31:40.387Z,3.50
2018-06-15T02:34:10.012Z,1.97
2018-06-15T02:36:39.640Z,4.77
2018-06-15T02:39:10.869Z,5.50
2018-06-15T02:41:40.885Z,4.70
2018-06-15T02:44:10.483Z,4.30
2018-06-15T02:46:40.092Z,3.63
2018-06-15T02:49:09.711Z,2.60
2018-06-15T02:51:39.421Z,4.23
2018-06-15T02:54:09.106Z,2.83
2018-06-15T02:56:38.852Z,2.63
2018-06-15T02:59:08.549Z,14.83
2018-06-15T03:01:38.134Z,4.70
2018-06-15T03:04:07.818Z,4.07
2018-06-15T03:06:37.442Z,3.17
2018-06-15T03:09:07.896Z,5.73
2018-06-15T03:11:37.477Z,6.20
2018-06-15T03:14:07.147Z,4.37
2018-06-15T03:16:36.786Z,4.50
2018-06-15T03:19:06.495Z,3.87
2018-06-15T03:21:36.086Z,2.90
2018-06-15T03:24:05.776Z,2.43
2018-06-15T03:26:35.366Z,5.03
2018-06-15T03:29:05.042Z,4.20
2018-06-15T03:31:34.596Z,3.47
2018-06-15T03:34:04.231Z,5.07
2018-06-15T03:36:33.916Z,8.27
2018-06-15T03:39:03.812Z,5.47
2018-06-15T03:41:33.483Z,6.37
2018-06-15T03:44:03.088Z,3.80
2018-06-15T03:46:32.910Z,7.30
2018-06-15T03:49:02.518Z,4.27
2018-06-15T03:51:32.139Z,2.50
2018-06-15T03:54:02.140Z,7.60
2018-06-15T03:56:31.787Z,4.43
2018-06-15T03:59:01.433Z,3.77
2018-06-15T04:01:31.080Z,4.97
2018-06-15T04:04:00.700Z,3.00
2018-06-15T04:06:30.337Z,6.73
2018-06-15T04:08:59.950Z,5.00
2018-06-15T04:11:29.580Z,3.00
2018-06-15T04:13:59.231Z,4.20
2018-06-15T04:16:28.885Z,4.00
2018-06-15T04:18:58.551Z,3.53
2018-06-15T04:21:28.209Z,4.17
2018-06-15T04:23:57.930Z,3.30
2018-06-15T04:26:27.587Z,2.30
2018-06-15T04:28:57.248Z,5.20
2018-06-15T04:31:26.929Z,6.63
2018-06-15T04:33:57.429Z,3.17
2018-06-15T04:36:27.096Z,2.83
2018-06-15T04:38:56.765Z,3.03
2018-06-15T04:41:26.358Z,4.40
2018-06-15T04:43:56.032Z,6.13
2018-06-15T04:46:25.046Z,7.50
2018-06-15T04:48:54.653Z,5.40
2018-06-15T04:51:24.223Z,3.03
2018-06-15T04:53:53.840Z,4.33
2018-06-15T04:56:23.572Z,3.10
2018-06-15T04:58:53.198Z,3.43
2018-06-15T05:01:22.802Z,15.07
2018-06-15T05:03:52.788Z,3.43
2018-06-15T05:06:22.464Z,3.00
2018-06-15T05:08:52.191Z,5.70
2018-06-15T05:11:21.815Z,6.23
2018-06-15T05:13:51.400Z,6.07
2018-06-15T05:16:21.068Z,4.87
2018-06-15T05:18:50.732Z,3.97
2018-06-15T05:21:20.358Z,5.63
2018-06-15T05:23:49.973Z,7.20
2018-06-15T05:26:19.542Z,10.00
2018-06-15T05:28:49.219Z,4.00
2018-06-15T05:31:18.881Z,4.10
2018-06-15T05:33:48.476Z,4.47
2018-06-15T05:36:18.050Z,4.00
2018-06-15T05:38:47.630Z,9.80
2018-06-15T05:41:17.295Z,6.20
2018-06-15T05:43:46.943Z,4.20
2018-06-15T05:46:16.554Z,5.43
2018-06-15T05:48:46.125Z,7.80
2018-06-15T05:51:15.811Z,3.23
2018-06-15T05:53:45.535Z,8.47
2018-06-15T05:56:15.165Z,7.23
2018-06-15T05:58:44.127Z,16.33
2018-06-15T06:01:13.848Z,2.87
2018-06-15T06:03:43.518Z,7.30
2018-06-15T06:06:13.148Z,3.87
2018-06-15T06:08:42.843Z,6.03
2018-06-15T06:11:12.573Z,4.70
2018-06-15T06:13:42.382Z,2.87
2018-06-15T06:16:12.110Z,5.80
2018-06-15T06:18:42.020Z,3.60
2018-06-15T06:21:11.680Z,2.90
2018-06-15T06:23:41.612Z,4.50
2018-06-15T06:26:11.526Z,5.43
2018-06-15T06:28:41.512Z,5.90
2018-06-15T06:31:11.196Z,5.60
2018-06-15T06:33:41.309Z,3.90
2018-06-15T06:36:10.964Z,5.73
2018-06-15T06:38:41.264Z,5.13
2018-06-15T06:41:10.956Z,2.53
2018-06-15T06:43:40.958Z,2.40
2018-06-15T06:46:10.617Z,3.80
2018-06-15T06:48:40.490Z,5.67
2018-06-15T06:51:10.170Z,2.57
2018-06-15T06:53:40.154Z,6.67
2018-06-15T06:56:09.844Z,3.70
2018-06-15T06:58:39.907Z,3.03
2018-06-15T07:01:09.631Z,9.00
2018-06-15T07:03:39.608Z,5.33
2018-06-15T07:06:09.352Z,6.10
2018-06-15T07:08:39.317Z,4.03
2018-06-15T07:11:09.210Z,4.00
2018-06-15T07:13:39.214Z,5.47
2018-06-15T07:16:08.853Z,6.50
2018-06-15T07:18:38.709Z,4.03
2018-06-15T07:21:08.463Z,4.63
2018-06-15T07:23:38.303Z,3.83
2018-06-15T07:26:08.195Z,4.33
2018-06-15T07:28:38.103Z,4.43
2018-06-15T07:31:07.843Z,4.43
2018-06-15T07:33:37.968Z,7.13
2018-06-15T07:36:07.574Z,4.43
2018-06-15T07:38:37.459Z,4.00
2018-06-15T07:41:07.224Z,5.67
2018-06-15T07:43:36.891Z,5.90
2018-06-15T07:46:06.551Z,4.10
2018-06-15T07:48:36.169Z,3.80
2018-06-15T07:51:05.891Z,4.10
2018-06-15T07:53:35.506Z,4.70
2018-06-15T07:56:05.295Z,5.57
2018-06-15T07:58:34.956Z,4.50
2018-06-15T08:01:04.576Z,4.87
2018-06-15T08:03:40.885Z,4.53
2018-06-15T08:06:10.531Z,5.57
2018-06-15T08:08:40.113Z,6.60
2018-06-15T08:11:09.714Z,3.87
2018-06-15T08:13:39.382Z,8.83
2018-06-15T08:16:09.046Z,3.87
2018-06-15T08:18:38.723Z,4.90
2018-06-15T08:21:08.455Z,19.33
2018-06-15T08:23:38.171Z,37.40
2018-06-15T08:26:07.819Z,48.57
2018-06-15T08:28:37.393Z,40.70
2018-06-15T08:31:07.053Z,23.40
2018-06-15T08:33:36.700Z,18.10
2018-06-15T08:36:06.333Z,14.60
2018-06-15T08:38:36.020Z,11.77
2018-06-15T08:41:05.698Z,14.27
2018-06-15T08:43:35.354Z,8.23
2018-06-15T08:46:05.039Z,5.83
2018-06-15T08:48:34.750Z,4.47
2018-06-15T08:51:04.438Z,5.87
2018-06-15T08:53:34.315Z,5.67
2018-06-15T08:56:03.995Z,5.70
2018-06-15T08:58:33.801Z,5.87
2018-06-15T09:01:03.506Z,11.83
2018-06-15T09:03:33.106Z,6.20
2018-06-15T09:06:02.667Z,5.40
2018-06-15T09:08:32.316Z,4.50
2018-06-15T09:11:01.928Z,4.77
2018-06-15T09:13:31.550Z,4.53
2018-06-15T09:16:01.323Z,9.90
2018-06-15T09:18:31.031Z,4.90
2018-06-15T09:21:00.719Z,3.47
2018-06-15T09:23:30.417Z,3.57
2018-06-15T09:25:59.994Z,3.97
2018-06-15T09:28:29.637Z,4.40
2018-06-15T09:30:59.299Z,4.30
2018-06-15T09:33:28.921Z,3.13
2018-06-15T09:35:58.635Z,3.03
2018-06-15T09:38:28.333Z,4.73
2018-06-15T09:40:57.922Z,4.20
2018-06-15T09:43:27.569Z,3.90
2018-06-15T09:45:57.149Z,2.97
2018-06-15T09:48:26.805Z,5.90
2018-06-15T09:50:56.482Z,36.70
2018-06-15T09:53:26.102Z,48.93
2018-06-15T09:55:57.179Z,33.13
2018-06-15T09:58:27.249Z,223.20
2018-06-15T10:01:01.960Z,161.73
2018-06-15T10:03:31.990Z,127.73
2018-06-15T10:06:01.920Z,60.70
2018-06-15T10:08:31.518Z,35.73
2018-06-15T10:11:01.217Z,23.93
2018-06-15T10:13:30.891Z,13.67
2018-06-15T10:16:00.455Z,10.67
2018-06-15T10:18:30.092Z,7.20
2018-06-15T10:20:59.800Z,5.57
2018-06-15T10:23:29.391Z,4.33
2018-06-15T10:25:58.964Z,5.97
2018-06-15T10:28:28.600Z,18.83
2018-06-15T10:30:58.273Z,14.27
2018-06-15T10:33:27.904Z,10.50
2018-06-15T10:35:57.505Z,7.73
2018-06-15T10:38:27.301Z,10.97
2018-06-15T10:40:56.993Z,8.70
2018-06-15T10:43:26.676Z,12.13
2018-06-15T10:45:56.291Z,8.80
2018-06-15T10:48:25.900Z,9.70
2018-06-15T10:50:55.792Z,21.27
2018-06-15T10:53:25.461Z,11.67
2018-06-15T10:55:54.378Z,16.63
2018-06-15T10:58:24.011Z,6.33
2018-06-15T11:00:53.599Z,7.37
2018-06-15T11:03:23.176Z,3.83
2018-06-15T11:05:52.818Z,3.90
2018-06-15T11:08:22.761Z,10.13
2018-06-15T11:10:52.397Z,5.30
2018-06-15T11:13:22.007Z,2.87
2018-06-15T11:15:51.645Z,3.20
2018-06-15T11:18:21.223Z,3.37
2018-06-15T11:20:50.869Z,2.83
2018-06-15T11:23:20.521Z,4.33
2018-06-15T11:25:50.217Z,3.37
2018-06-15T11:28:19.920Z,3.10
2018-06-15T11:30:49.547Z,4.93
2018-06-15T11:33:19.263Z,5.07
2018-06-15T11:35:48.917Z,4.77
2018-06-15T11:38:18.480Z,5.63
2018-06-15T11:40:48.250Z,3.50
2018-06-15T11:43:17.837Z,3.47
2018-06-15T11:45:47.457Z,2.97
2018-06-15T11:48:17.147Z,3.23
2018-06-15T11:50:46.845Z,3.23
2018-06-15T11:53:16.494Z,4.13
2018-06-15T11:55:46.123Z,3.30
2018-06-15T11:58:15.795Z,2.67
2018-06-15T12:00:45.442Z,3.50
2018-06-15T12:03:14.994Z,2.80
2018-06-15T12:05:44.590Z,2.97
2018-06-15T12:08:14.216Z,4.17
2018-06-15T12:10:43.835Z,2.57
2018-06-15T12:13:13.519Z,2.70
2018-06-15T12:15:43.151Z,3.00
2018-06-15T12:18:12.899Z,2.57
2018-06-15T12:20:42.533Z,3.37
2018-06-15T12:23:12.135Z,3.53
2018-06-15T12:25:41.774Z,4.00
2018-06-15T12:28:11.398Z,2.97
2018-06-15T12:30:41.016Z,2.63
2018-06-15T12:33:10.631Z,3.40
2018-06-15T12:35:40.287Z,5.30
2018-06-15T12:38:09.911Z,3.60
2018-06-15T12:40:42.417Z,8.20
2018-06-15T12:43:12.135Z,3.50
2018-06-15T12:45:41.772Z,2.63
2018-06-15T12:48:11.402Z,4.30
2018-06-15T12:50:41.041Z,2.83
2018-06-15T12:53:10.770Z,3.83
2018-06-15T12:55:40.381Z,4.00
2018-06-15T12:58:10.049Z,3.03
2018-06-15T13:00:39.698Z,3.50
2018-06-15T13:03:09.349Z,3.00
2018-06-15T13:05:38.982Z,3.03
2018-06-15T13:08:08.578Z,2.80
2018-06-15T13:10:38.238Z,6.23
2018-06-15T13:13:07.848Z,3.17
2018-06-15T13:15:37.503Z,3.57
2018-06-15T13:18:07.112Z,2.63
2018-06-15T13:20:39.795Z,2.50
2018-06-15T13:23:12.589Z,2.70
2018-06-15T13:25:46.420Z,3.43
2018-06-15T13:28:19.244Z,2.40
2018-06-15T13:30:52.191Z,3.57
2018-06-15T13:33:24.528Z,3.03
2018-06-15T13:35:57.459Z,2.43
2018-06-15T13:38:30.626Z,4.13
2018-06-15T13:41:04.403Z,5.73
2018-06-15T13:43:37.651Z,2.87
2018-06-15T13:46:10.131Z,2.50
2018-06-15T13:48:43.996Z,3.93
2018-06-15T13:51:16.287Z,3.20
2018-06-15T13:53:49.172Z,3.00
2018-06-15T13:56:21.696Z,6.47
2018-06-15T13:58:55.088Z,3.90
2018-06-15T14:01:27.847Z,3.00
2018-06-15T14:03:59.131Z,3.60
2018-06-15T14:06:30.185Z,3.07
2018-06-15T14:09:01.204Z,4.83
2018-06-15T14:11:32.172Z,3.50
2018-06-15T14:14:03.303Z,5.00
2018-06-15T14:16:35.378Z,6.77
2018-06-15T14:19:06.474Z,5.03
2018-06-15T14:21:38.157Z,4.40
2018-06-15T14:24:09.031Z,5.03
2018-06-15T14:26:39.853Z,3.37
2018-06-15T14:29:10.774Z,5.00
2018-06-15T14:31:41.693Z,4.33
2018-06-15T14:34:13.521Z,3.47
2018-06-15T14:36:44.675Z,3.70
2018-06-15T14:39:15.554Z,3.73
2018-06-15T14:41:46.464Z,3.30
2018-06-15T14:44:16.150Z,2.97
2018-06-15T14:46:45.841Z,11.03
2018-06-15T14:49:15.561Z,5.20
2018-06-15T14:51:45.249Z,4.63
2018-06-15T14:54:14.967Z,3.40
2018-06-15T14:56:44.596Z,4.20
2018-06-15T14:59:14.333Z,3.00
2018-06-15T15:01:43.935Z,5.00
2018-06-15T15:04:13.602Z,3.80
2018-06-15T15:06:43.279Z,2.73
2018-06-15T15:09:12.916Z,2.90
2018-06-15T15:11:42.506Z,3.83
2018-06-15T15:14:12.246Z,3.40
2018-06-15T15:16:41.945Z,3.87
2018-06-15T15:19:11.632Z,4.07
2018-06-15T15:21:41.178Z,3.67
2018-06-15T15:24:10.814Z,3.67
2018-06-15T15:26:40.473Z,3.60
2018-06-15T15:29:10.129Z,4.10
2018-06-15T15:31:39.758Z,3.23
2018-06-15T15:34:09.421Z,3.20
2018-06-15T15:36:39.031Z,3.50
2018-06-15T15:39:10.520Z,3.17
2018-06-15T15:41:40.173Z,4.43
2018-06-15T15:44:10.105Z,3.10
2018-06-15T15:46:39.788Z,2.63
2018-06-15T15:49:09.430Z,3.53
2018-06-15T15:51:39.049Z,3.43
2018-06-15T15:54:08.734Z,4.33
2018-06-15T15:56:38.445Z,2.80
2018-06-15T15:59:08.109Z,3.90
2018-06-15T16:01:37.715Z,3.40
2018-06-15T16:04:07.379Z,4.57
2018-06-15T16:06:37.035Z,4.27
2018-06-15T16:09:07.970Z,2.30
2018-06-15T16:11:37.611Z,2.43
2018-06-15T16:14:07.508Z,2.40
2018-06-15T16:16:37.180Z,2.87
2018-06-15T16:19:06.796Z,2.50
2018-06-15T16:21:36.400Z,4.63
2018-06-15T16:24:06.192Z,5.03
2018-06-15T16:26:35.903Z,3.60
2018-06-15T16:29:05.595Z,2.97
2018-06-15T16:31:35.124Z,3.40
2018-06-15T16:34:04.725Z,3.97
2018-06-15T16:36:34.339Z,3.70
2018-06-15T16:39:04.745Z,3.20
2018-06-15T16:41:37.776Z,3.43
2018-06-15T16:44:07.547Z,4.50
2018-06-15T16:46:45.137Z,5.47
2018-06-15T16:49:14.917Z,3.13
2018-06-15T16:51:45.235Z,2.30
2018-06-15T16:54:14.891Z,2.93
2018-06-15T16:56:44.580Z,2.70
2018-06-15T16:59:14.341Z,3.43
2018-06-15T17:01:43.907Z,2.77
2018-06-15T17:04:13.571Z,3.67
2018-06-15T17:06:43.274Z,3.80
2018-06-15T17:09:12.944Z,2.87
2018-06-15T17:11:42.582Z,2.90
2018-06-15T17:14:12.248Z,3.30
2018-06-15T17:16:41.980Z,3.77
2018-06-15T17:19:11.671Z,3.70
2018-06-15T17:21:41.323Z,3.07
2018-06-15T17:24:10.975Z,3.17
2018-06-15T17:26:40.665Z,2.97
2018-06-15T17:29:10.323Z,3.03
2018-06-15T17:31:39.917Z,3.33
2018-06-15T17:34:09.573Z,3.23
2018-06-15T17:36:46.153Z,3.00
2018-06-15T17:39:15.895Z,2.83
2018-06-15T17:41:45.921Z,2.93
2018-06-15T17:44:15.581Z,3.57
2018-06-15T17:46:45.234Z,2.90
2018-06-15T17:49:14.844Z,2.80
2018-06-15T17:51:44.454Z,4.70
2018-06-15T17:54:14.081Z,2.80
2018-06-15T17:56:43.665Z,2.50
2018-06-15T17:59:13.264Z,3.03
2018-06-15T18:01:43.035Z,4.43
2018-06-15T18:04:12.736Z,11.50
2018-06-15T18:06:42.420Z,2.97
2018-06-15T18:09:12.233Z,3.50
2018-06-15T18:11:41.852Z,3.83
2018-06-15T18:14:11.476Z,4.30
2018-06-15T18:16:41.156Z,3.23
2018-06-15T18:19:10.776Z,3.37
2018-06-15T18:21:40.396Z,3.47
2018-06-15T18:24:09.962Z,3.30
2018-06-15T18:26:39.507Z,4.27
2018-06-15T18:29:09.196Z,3.40
2018-06-15T18:31:38.939Z,4.10
2018-06-15T18:34:08.603Z,3.30
2018-06-15T18:36:38.278Z,4.27
2018-06-15T18:39:12.409Z,4.63
2018-06-15T18:41:42.186Z,3.73
2018-06-15T18:44:11.850Z,4.70
2018-06-15T18:46:41.505Z,4.10
2018-06-15T18:49:11.193Z,4.70
2018-06-15T18:51:40.932Z,4.70
2018-06-15T18:54:10.682Z,2.83
2018-06-15T18:56:40.326Z,5.40
2018-06-15T18:59:10.018Z,4.10
2018-06-15T19:01:40.082Z,4.47
2018-06-15T19:04:09.730Z,4.03
2018-06-15T19:06:39.498Z,6.50
2018-06-15T19:09:11.720Z,7.53
2018-06-15T19:11:42.037Z,3.10
2018-06-15T19:14:12.185Z,4.90
2018-06-15T19:16:42.432Z,4.37
2018-06-15T19:19:12.407Z,8.70
2018-06-15T19:21:42.358Z,4.90
2018-06-15T19:24:12.331Z,3.63
2018-06-15T19:26:42.597Z,4.90
2018-06-15T19:29:13.094Z,4.40
2018-06-15T19:31:43.167Z,4.30
2018-06-15T19:34:13.478Z,4.20
2018-06-15T19:36:43.721Z,4.10
2018-06-15T19:39:13.980Z,5.00
2018-06-15T19:41:44.252Z,3.40
2018-06-15T19:44:14.448Z,5.53
2018-06-15T19:46:44.747Z,5.13
2018-06-15T19:49:15.127Z,4.70
2018-06-15T19:51:45.247Z,6.23
2018-06-15T19:54:15.871Z,4.10
2018-06-15T19:56:45.884Z,4.03
2018-06-15T19:59:15.991Z,4.00
2018-06-15T20:01:46.249Z,5.50
2018-06-15T20:04:16.637Z,4.37
2018-06-15T20:06:46.974Z,3.97
2018-06-15T20:09:17.177Z,6.00
2018-06-15T20:11:47.500Z,4.80
2018-06-15T20:14:17.835Z,4.50
2018-06-15T20:16:48.197Z,4.87
2018-06-15T20:19:18.493Z,4.60
2018-06-15T20:21:48.727Z,4.17
2018-06-15T20:24:18.886Z,3.73
2018-06-15T20:26:48.872Z,4.80
2018-06-15T20:29:19.046Z,4.53
2018-06-15T20:31:49.226Z,8.33
2018-06-15T20:34:19.269Z,5.00
2018-06-15T20:36:49.434Z,6.10
2018-06-15T20:39:19.534Z,5.20
2018-06-15T20:41:49.650Z,4.77
2018-06-15T20:44:19.723Z,5.60
2018-06-15T20:46:50.077Z,7.17
2018-06-15T20:49:20.375Z,5.80
2018-06-15T20:51:50.685Z,5.40
2018-06-15T20:54:20.990Z,10.20
2018-06-15T20:56:51.034Z,6.80
2018-06-15T20:59:20.885Z,6.90
2018-06-15T21:01:50.882Z,8.53
2018-06-15T21:04:20.740Z,5.13
2018-06-15T21:06:50.805Z,6.03
2018-06-15T21:09:20.662Z,5.97
2018-06-15T21:11:50.632Z,8.83
2018-06-15T21:14:20.543Z,6.03
2018-06-15T21:16:50.225Z,5.77
2018-06-15T21:19:19.869Z,4.97
2018-06-15T21:21:49.594Z,5.00
2018-06-15T21:24:19.325Z,5.50
2018-06-15T21:26:48.923Z,6.53
2018-06-15T21:29:18.509Z,5.47
2018-06-15T21:31:48.104Z,8.77
2018-06-15T21:34:17.726Z,5.77
2018-06-15T21:36:46.699Z,5.43
2018-06-15T21:39:16.324Z,6.07
2018-06-15T21:41:45.910Z,8.13
2018-06-15T21:44:15.648Z,13.20
2018-06-15T21:46:45.276Z,5.73
2018-06-15T21:49:14.873Z,6.00
2018-06-15T21:51:44.574Z,4.83
2018-06-15T21:54:14.206Z,5.30
2018-06-15T21:56:43.778Z,6.57
2018-06-15T21:59:13.415Z,6.20
2018-06-15T22:01:43.109Z,7.03
2018-06-15T22:04:12.731Z,5.00
2018-06-15T22:06:42.315Z,5.43
2018-06-15T22:09:11.971Z,5.07
2018-06-15T22:11:41.669Z,5.40
2018-06-15T22:14:11.529Z,7.00
2018-06-15T22:16:46.273Z,7.47
2018-06-15T22:19:15.978Z,6.70
2018-06-15T22:21:45.641Z,4.23
2018-06-15T22:24:15.434Z,5.20
2018-06-15T22:26:45.336Z,4.00
2018-06-15T22:29:15.013Z,6.70
2018-06-15T22:31:44.730Z,9.40
2018-06-15T22:34:14.308Z,7.63
2018-06-15T22:36:43.891Z,5.93
2018-06-15T22:39:15.525Z,6.27
2018-06-15T22:41:45.185Z,4.10
2018-06-15T22:44:14.887Z,8.90
2018-06-15T22:46:44.534Z,5.50
2018-06-15T22:49:14.198Z,4.30
2018-06-15T22:51:43.752Z,6.67
2018-06-15T22:54:13.286Z,5.30
2018-06-15T22:56:42.872Z,4.67
2018-06-15T22:59:12.433Z,5.30
2018-06-15T23:01:42.108Z,4.40
2018-06-15T23:04:11.729Z,5.47
2018-06-15T23:06:41.457Z,4.40
2018-06-15T23:09:12.385Z,4.13
2018-06-15T23:11:42.586Z,5.80
2018-06-15T23:14:12.480Z,5.40
2018-06-15T23:16:42.178Z,4.70
2018-06-15T23:19:11.834Z,6.17
2018-06-15T23:21:41.452Z,3.70
2018-06-15T23:24:11.024Z,4.60
2018-06-15T23:26:40.645Z,4.80
2018-06-15T23:29:10.281Z,5.90
2018-06-15T23:31:39.927Z,6.87
2018-06-15T23:34:09.602Z,5.47
2018-06-15T23:36:39.124Z,4.57
2018-06-15T23:39:09.849Z,4.70
2018-06-15T23:41:39.593Z,5.97
2018-06-15T23:44:09.302Z,4.80
2018-06-15T23:46:38.932Z,5.60
2018-06-15T23:49:08.562Z,4.80
2018-06-15T23:51:38.134Z,4.57
2018-06-15T23:54:07.730Z,7.03
2018-06-15T23:56:37.321Z,7.60
2018-06-15T23:59:07.075Z,6.27
